Pagrindinis puslapis
METAR-TAF:

METAR-TAF

Oro uostai :

Estešundas-Frösön, Švedija

platuma: 63-11N, ilguma: 014-30E, Aukštis: 376 m

Dabartinis oras

Ataskaita buvo paskelbta 33 minutes, ne 21:20 UTC
Vėjas 8 kt iš Rytų/Pietryčių, svyruoja nuo Rytų ir Pietų
Temperatūra 13°C
Drėgmė 77%
Slėgis 1011 hPa
Matomumas 10 km arba daugiau

METAR: ESNZ 162120Z AUTO 12008KT 100V170 9999 NCD 13/09 Q1011

Laikas: 23:53 (21:53 UTC)

Prognozė

Ataskaita buvo paskelbta 4 valandos ir 23 minutes, ne 17:30 UTC
Prognozė galioja nuo 16 metu 18 UTC su 16 metu 22 UTC
Vėjas 8 kt iš Pietryčių
Matomumas 10 km arba daugiau
nėra debesų žemiau 1500 m ir nėra kamuolinių lietaus debesų
Tikimybė 40%
nuo 16 metu 18 UTC su 16 metu 22 UTC
Išsisklaidę debesys ne aukštis 3000 ft, Liūtiniai kamuoliniai debesys.
lietus,

TAF: ESNZ 161730Z 1618/1622 13008KT CAVOK PROB40 1618/1622 SHRA SCT030CB

Orai ataskaitas ir orų prognozės (METAR, TAF).

turimą stotys yra geltonos ir raudonos taškus žemėlapyje.

Perkelti pele per norėdami pamatyti stoties vardą.

Tada spustelėkite, norėdami matyti oro stebėjimo ir prognozės.

Norėdami pakeisti žemėlapį: spustelėkite ant žalios mygtukų su juodo kryžiaus žemyn,; žalią mygtuką su brūkšneliu, jei norite nutolinti; arba žalių rodyklių gretimoms žemėlapius.


METAR-TAF: